Time;durP1;ratioP1;P1;durP2;ratioP2;P2;SDS_P1;SDS_P2;PMS_P1;PMS_P2;Temp;Humidity;BMP_temperature;BMP_pressure;BME280_temperature;BME280_humidity;BME280_pressure;Samples;Min_cycle;Max_cycle;Signal;HPM_P1;HPM_P2
2023/08/05 00:02:00;;;;;;;7.70;4.22;;;;;;;;;;5014750;28;20763;-66
2023/08/05 00:04:27;;;;;;;10.27;4.10;;;;;;;;;;5012581;28;20058;-66
2023/08/05 00:06:54;;;;;;;6.63;3.50;;;;;;;;;;5019648;28;20044;-65
2023/08/05 00:09:20;;;;;;;8.00;4.03;;;;;;;;;;5038564;28;20071;-64
2023/08/05 00:11:47;;;;;;;9.02;4.07;;;;;;;;;;5019737;28;20098;-64
2023/08/05 00:14:14;;;;;;;7.30;3.75;;;;;;;;;;5038937;28;20064;-64
2023/08/05 00:16:41;;;;;;;9.55;4.13;;;;;;;;;;5035770;28;20052;-65
2023/08/05 00:19:07;;;;;;;11.20;4.00;;;;;;;;;;5025846;28;20041;-63
2023/08/05 00:21:34;;;;;;;9.88;4.10;;;;;;;;;;5036885;28;20048;-64
2023/08/05 00:24:01;;;;;;;7.60;3.97;;;;;;;;;;5030947;28;20059;-63
2023/08/05 00:26:27;;;;;;;8.02;3.92;;;;;;;;;;5019048;28;20062;-64
2023/08/05 00:28:54;;;;;;;7.60;3.50;;;;;;;;;;5035180;28;20041;-64
2023/08/05 00:31:20;;;;;;;8.07;3.15;;;;;;;;;;5027802;28;20037;-65
2023/08/05 00:33:47;;;;;;;6.75;3.55;;;;;;;;;;5032356;28;20070;-64
2023/08/05 00:36:14;;;;;;;6.88;3.92;;;;;;;;;;4992879;28;20119;-65
2023/08/05 00:38:40;;;;;;;6.40;3.40;;;;;;;;;;4987114;28;21617;-65
2023/08/05 00:41:07;;;;;;;9.25;3.92;;;;;;;;;;4979753;28;20122;-64
2023/08/05 00:43:33;;;;;;;6.78;3.67;;;;;;;;;;4981730;28;20432;-65
2023/08/05 00:46:01;;;;;;;7.43;3.72;;;;;;;;;;4988562;28;20038;-64
2023/08/05 00:48:28;;;;;;;7.97;3.55;;;;;;;;;;4980777;28;20043;-65
2023/08/05 00:50:55;;;;;;;9.02;3.92;;;;;;;;;;4986441;28;20558;-64
2023/08/05 00:53:23;;;;;;;7.13;3.58;;;;;;;;;;4988503;28;20057;-64
2023/08/05 00:55:53;;;;;;;7.00;3.67;;;;;;;;;;4982520;28;20057;-64
2023/08/05 00:58:22;;;;;;;9.48;3.40;;;;;;;;;;4977088;28;20411;-64
2023/08/05 01:00:49;;;;;;;9.55;3.35;;;;;;;;;;4979794;28;20045;-63
2023/08/05 01:03:16;;;;;;;7.38;3.30;;;;;;;;;;4978627;28;20136;-64
2023/08/05 01:05:43;;;;;;;6.30;3.50;;;;;;;;;;4984815;28;20058;-64
2023/08/05 01:08:11;;;;;;;9.77;3.95;;;;;;;;;;4977836;28;20100;-64
2023/08/05 01:10:38;;;;;;;6.97;3.60;;;;;;;;;;4981863;28;20209;-63
2023/08/05 01:13:05;;;;;;;6.45;3.45;;;;;;;;;;4976552;28;20045;-63
2023/08/05 01:15:31;;;;;;;9.57;3.70;;;;;;;;;;4978318;28;20499;-63
2023/08/05 01:17:58;;;;;;;7.38;3.60;;;;;;;;;;4976886;28;20042;-63
2023/08/05 01:20:28;;;;;;;7.05;3.45;;;;;;;;;;4976617;28;20061;-63
2023/08/05 01:22:55;;;;;;;11.32;4.13;;;;;;;;;;4976925;28;20038;-63
2023/08/05 01:25:29;;;;;;;6.05;3.50;;;;;;;;;;4986160;28;20138;-64
2023/08/05 01:27:57;;;;;;;6.90;3.53;;;;;;;;;;4974961;28;20058;-64
2023/08/05 01:30:25;;;;;;;7.53;3.50;;;;;;;;;;4982265;28;20035;-64
2023/08/05 01:32:52;;;;;;;8.50;3.85;;;;;;;;;;4976281;28;20145;-64
2023/08/05 01:35:21;;;;;;;8.40;4.05;;;;;;;;;;4976646;28;20030;-63
2023/08/05 01:37:48;;;;;;;8.98;3.90;;;;;;;;;;4977139;28;20561;-63
2023/08/05 01:40:15;;;;;;;10.75;3.90;;;;;;;;;;4992938;28;20053;-62
2023/08/05 01:42:41;;;;;;;8.65;4.10;;;;;;;;;;4976637;28;20168;-64
2023/08/05 01:45:08;;;;;;;8.02;3.80;;;;;;;;;;4979363;28;20581;-67
2023/08/05 01:47:35;;;;;;;8.25;4.22;;;;;;;;;;4986577;28;20124;-67
2023/08/05 01:50:09;;;;;;;11.38;4.07;;;;;;;;;;4979288;28;20030;-64
2023/08/05 01:52:36;;;;;;;7.68;3.60;;;;;;;;;;4983301;28;20045;-65
2023/08/05 01:55:03;;;;;;;7.90;3.70;;;;;;;;;;4996478;28;20071;-63
2023/08/05 01:57:30;;;;;;;10.15;4.47;;;;;;;;;;5006973;28;20042;-65
2023/08/05 01:59:57;;;;;;;12.52;4.90;;;;;;;;;;4973837;28;20037;-67
2023/08/05 02:02:23;;;;;;;9.15;4.53;;;;;;;;;;4974037;28;20554;-65
2023/08/05 02:04:50;;;;;;;9.50;4.07;;;;;;;;;;4994511;28;20935;-64
2023/08/05 02:07:17;;;;;;;9.65;3.90;;;;;;;;;;4985763;28;20038;-65
2023/08/05 02:09:43;;;;;;;8.82;4.10;;;;;;;;;;4986318;28;20114;-64
2023/08/05 02:12:10;;;;;;;14.85;4.00;;;;;;;;;;4996102;28;20042;-63
2023/08/05 02:14:36;;;;;;;12.23;3.95;;;;;;;;;;4976895;28;20042;-64
2023/08/05 02:18:14;;;;;;;20.70;5.00;;;;;;;;;;5073736;27;20434;-65
2023/08/05 02:20:41;;;;;;;17.48;5.25;;;;;;;;;;5074769;28;20039;-66
2023/08/05 02:23:07;;;;;;;11.57;5.30;;;;;;;;;;5070624;27;20086;-69
2023/08/05 02:25:34;;;;;;;12.10;5.10;;;;;;;;;;5069825;28;20045;-66
2023/08/05 02:28:01;;;;;;;12.65;4.65;;;;;;;;;;5085074;28;20029;-61
2023/08/05 02:30:27;;;;;;;9.32;4.35;;;;;;;;;;5069119;28;20036;-65
2023/08/05 02:32:54;;;;;;;11.35;4.15;;;;;;;;;;5068074;27;20551;-63
2023/08/05 02:35:20;;;;;;;6.80;3.30;;;;;;;;;;5069945;28;20157;-65
2023/08/05 02:37:47;;;;;;;7.40;3.45;;;;;;;;;;5068045;28;20048;-65
2023/08/05 02:40:14;;;;;;;7.90;3.20;;;;;;;;;;5071410;28;20044;-65
2023/08/05 02:42:41;;;;;;;6.00;2.97;;;;;;;;;;5086558;28;20048;-64
2023/08/05 02:45:07;;;;;;;8.52;3.60;;;;;;;;;;5070408;28;20037;-65
2023/08/05 02:47:34;;;;;;;12.48;4.22;;;;;;;;;;5079962;28;20045;-64
2023/08/05 02:50:01;;;;;;;7.32;3.50;;;;;;;;;;5068886;28;20136;-63
2023/08/05 02:52:27;;;;;;;7.80;3.50;;;;;;;;;;5059893;28;20036;-64
2023/08/05 02:54:54;;;;;;;11.23;4.22;;;;;;;;;;5080802;28;20040;-64
2023/08/05 02:57:21;;;;;;;8.30;4.03;;;;;;;;;;5067509;28;20045;-65
2023/08/05 02:59:47;;;;;;;8.68;4.30;;;;;;;;;;5068245;28;20096;-65
2023/08/05 03:02:14;;;;;;;7.47;4.13;;;;;;;;;;5068006;28;20044;-66
2023/08/05 03:05:00;;;;;;;8.77;4.25;;;;;;;;;;5053098;28;20060;-65
2023/08/05 03:07:27;;;;;;;8.80;3.53;;;;;;;;;;5062737;28;20488;-67
2023/08/05 03:09:54;;;;;;;9.25;4.05;;;;;;;;;;5065098;28;20040;-64
2023/08/05 03:12:22;;;;;;;9.82;4.63;;;;;;;;;;5063784;28;20906;-66
2023/08/05 03:14:48;;;;;;;7.25;3.83;;;;;;;;;;5064986;28;20067;-64
2023/08/05 03:17:15;;;;;;;7.53;3.80;;;;;;;;;;5068035;28;20268;-62
2023/08/05 03:19:42;;;;;;;10.07;3.65;;;;;;;;;;5070124;28;20468;-63
2023/08/05 03:22:08;;;;;;;10.95;4.35;;;;;;;;;;5066241;28;20644;-62
2023/08/05 03:24:35;;;;;;;9.80;3.97;;;;;;;;;;5063966;28;20182;-63
2023/08/05 03:27:01;;;;;;;8.40;3.72;;;;;;;;;;5063962;28;20048;-62
2023/08/05 03:29:28;;;;;;;8.30;3.53;;;;;;;;;;5050691;28;20045;-65
2023/08/05 03:31:55;;;;;;;9.50;3.78;;;;;;;;;;5051266;28;20155;-65
2023/08/05 03:34:23;;;;;;;7.85;3.58;;;;;;;;;;5050585;28;20044;-64
2023/08/05 03:36:52;;;;;;;9.98;4.18;;;;;;;;;;5049844;28;20048;-65
2023/08/05 03:39:19;;;;;;;9.50;3.90;;;;;;;;;;5050545;28;20129;-65
2023/08/05 03:42:06;;;;;;;7.82;3.97;;;;;;;;;;5024837;28;20176;-64
2023/08/05 03:44:32;;;;;;;8.40;3.78;;;;;;;;;;5050815;28;20037;-62
2023/08/05 03:46:59;;;;;;;9.57;4.72;;;;;;;;;;5055242;28;20140;-64
2023/08/05 03:49:26;;;;;;;10.20;3.80;;;;;;;;;;5052593;28;20615;-66
2023/08/05 03:51:52;;;;;;;8.02;3.40;;;;;;;;;;5051247;28;20059;-66
2023/08/05 03:54:19;;;;;;;6.32;3.30;;;;;;;;;;5052410;28;20055;-66
2023/08/05 03:56:45;;;;;;;8.07;3.88;;;;;;;;;;5035120;28;20461;-67
2023/08/05 03:59:12;;;;;;;7.72;3.58;;;;;;;;;;5053341;28;20888;-67
2023/08/05 04:01:39;;;;;;;8.93;3.85;;;;;;;;;;5053614;28;20033;-65
2023/08/05 04:04:05;;;;;;;7.97;3.17;;;;;;;;;;5056848;28;20103;-64
2023/08/05 04:06:32;;;;;;;11.07;3.70;;;;;;;;;;5049605;28;20041;-65
2023/08/05 04:08:59;;;;;;;9.45;3.53;;;;;;;;;;5050624;28;20048;-67
2023/08/05 04:11:26;;;;;;;7.63;3.60;;;;;;;;;;5050570;28;20040;-66
2023/08/05 04:13:57;;;;;;;9.52;3.63;;;;;;;;;;5050928;28;20070;-63
2023/08/05 04:16:24;;;;;;;6.65;3.80;;;;;;;;;;5048613;28;20088;-65
2023/08/05 04:18:52;;;;;;;8.10;3.90;;;;;;;;;;5049697;28;20375;-64
2023/08/05 04:21:23;;;;;;;12.15;3.85;;;;;;;;;;5048403;28;20071;-64
2023/08/05 04:23:49;;;;;;;8.48;4.30;;;;;;;;;;5049903;28;20033;-66
2023/08/05 04:26:16;;;;;;;8.13;3.97;;;;;;;;;;5049225;28;20041;-65
2023/08/05 04:28:42;;;;;;;6.43;3.67;;;;;;;;;;5050775;28;20107;-63
2023/08/05 04:31:09;;;;;;;8.40;3.58;;;;;;;;;;5053123;28;20033;-65
2023/08/05 04:33:36;;;;;;;9.38;3.80;;;;;;;;;;5052742;28;20051;-65
2023/08/05 04:36:03;;;;;;;8.18;3.75;;;;;;;;;;5053300;28;20822;-65
2023/08/05 04:38:30;;;;;;;6.80;3.60;;;;;;;;;;5052803;28;20054;-65
2023/08/05 04:40:57;;;;;;;5.90;3.20;;;;;;;;;;5052174;28;20036;-65
2023/08/05 04:43:24;;;;;;;6.07;3.10;;;;;;;;;;5052376;28;20160;-65
2023/08/05 04:45:50;;;;;;;7.90;3.38;;;;;;;;;;5054923;28;20036;-64
2023/08/05 04:48:17;;;;;;;7.38;3.35;;;;;;;;;;5057066;28;20065;-65
2023/08/05 04:51:04;;;;;;;5.75;2.90;;;;;;;;;;5027588;28;20076;-62
2023/08/05 04:53:30;;;;;;;5.72;2.80;;;;;;;;;;5029093;28;20149;-66
2023/08/05 04:55:57;;;;;;;8.25;3.00;;;;;;;;;;5019428;28;20072;-65
2023/08/05 04:58:24;;;;;;;6.45;2.83;;;;;;;;;;5028098;28;20052;-65
2023/08/05 05:00:50;;;;;;;8.20;3.50;;;;;;;;;;5033042;28;20032;-63
2023/08/05 05:03:17;;;;;;;7.28;3.42;;;;;;;;;;5030562;28;20399;-64
2023/08/05 05:05:45;;;;;;;7.40;3.20;;;;;;;;;;5028552;28;20038;-65
2023/08/05 05:08:11;;;;;;;7.70;3.42;;;;;;;;;;5016010;28;20125;-65
2023/08/05 05:10:38;;;;;;;5.38;2.67;;;;;;;;;;5030100;28;20076;-64
2023/08/05 05:13:04;;;;;;;5.50;3.03;;;;;;;;;;5030259;28;20132;-63
2023/08/05 05:15:31;;;;;;;9.50;2.80;;;;;;;;;;5017669;28;20030;-64
2023/08/05 05:17:57;;;;;;;7.97;3.15;;;;;;;;;;5028420;28;20044;-64
2023/08/05 05:20:24;;;;;;;6.55;3.05;;;;;;;;;;5026931;28;20042;-64
2023/08/05 05:22:51;;;;;;;6.97;3.28;;;;;;;;;;5057002;28;20098;-64
2023/08/05 05:25:17;;;;;;;8.00;3.58;;;;;;;;;;5053741;28;20032;-64
2023/08/05 05:27:44;;;;;;;8.30;3.90;;;;;;;;;;5052361;28;20041;-63
2023/08/05 05:30:11;;;;;;;8.20;3.63;;;;;;;;;;5053248;28;20037;-66
2023/08/05 05:32:37;;;;;;;6.25;3.08;;;;;;;;;;5050660;28;20036;-64
2023/08/05 05:35:04;;;;;;;6.00;3.40;;;;;;;;;;5050111;28;20218;-64
2023/08/05 05:37:30;;;;;;;7.53;3.00;;;;;;;;;;5049125;28;20060;-66
2023/08/05 05:39:57;;;;;;;7.43;2.97;;;;;;;;;;5050897;28;20070;-64
2023/08/05 05:42:24;;;;;;;7.93;3.58;;;;;;;;;;5051317;28;20114;-64
2023/08/05 05:44:52;;;;;;;5.53;3.08;;;;;;;;;;5048752;28;20036;-66
2023/08/05 05:47:19;;;;;;;7.43;3.38;;;;;;;;;;5048543;28;20110;-65
2023/08/05 05:49:46;;;;;;;6.68;3.45;;;;;;;;;;5055826;28;20047;-64
2023/08/05 05:52:16;;;;;;;7.38;3.35;;;;;;;;;;5064161;28;20036;-63
2023/08/05 05:54:43;;;;;;;12.75;3.80;;;;;;;;;;5049553;28;20134;-63
2023/08/05 05:57:10;;;;;;;9.05;3.80;;;;;;;;;;5049547;28;20052;-63
2023/08/05 05:59:39;;;;;;;7.78;3.22;;;;;;;;;;5048881;28;20174;-64
2023/08/05 06:02:07;;;;;;;7.88;3.08;;;;;;;;;;5049259;28;20883;-65
2023/08/05 06:04:34;;;;;;;7.60;2.97;;;;;;;;;;5047552;28;20040;-64
2023/08/05 06:07:02;;;;;;;9.40;4.00;;;;;;;;;;5050101;28;20060;-64
2023/08/05 06:09:31;;;;;;;9.77;3.97;;;;;;;;;;5048043;28;20123;-66
2023/08/05 06:11:58;;;;;;;6.72;3.25;;;;;;;;;;5047849;28;20036;-65
2023/08/05 06:14:25;;;;;;;9.93;3.42;;;;;;;;;;5049462;28;20387;-65
2023/08/05 06:16:51;;;;;;;5.60;3.08;;;;;;;;;;5041304;28;20132;-66
2023/08/05 06:19:18;;;;;;;6.35;3.42;;;;;;;;;;5060750;28;20132;-64
2023/08/05 06:21:44;;;;;;;8.75;3.67;;;;;;;;;;5049340;28;20040;-64
2023/08/05 06:24:11;;;;;;;7.45;3.28;;;;;;;;;;5047277;28;20047;-65
2023/08/05 06:26:38;;;;;;;12.10;3.40;;;;;;;;;;5046631;28;20048;-65
2023/08/05 06:29:05;;;;;;;8.80;3.35;;;;;;;;;;5047438;28;20131;-64
2023/08/05 06:31:32;;;;;;;9.63;3.63;;;;;;;;;;5047815;28;20120;-66
2023/08/05 06:33:58;;;;;;;6.75;3.38;;;;;;;;;;5048875;28;20037;-64
2023/08/05 06:36:26;;;;;;;6.50;3.33;;;;;;;;;;5047975;28;20057;-64
2023/08/05 06:38:52;;;;;;;7.88;3.40;;;;;;;;;;5049890;28;20044;-65
2023/08/05 06:41:19;;;;;;;6.93;3.30;;;;;;;;;;5048425;28;20037;-64
2023/08/05 06:43:46;;;;;;;9.18;3.83;;;;;;;;;;5048250;28;20079;-64
2023/08/05 06:46:13;;;;;;;7.05;3.72;;;;;;;;;;5047865;28;20090;-65
2023/08/05 06:48:39;;;;;;;6.32;3.30;;;;;;;;;;5049264;28;20117;-64
2023/08/05 06:51:06;;;;;;;7.50;3.60;;;;;;;;;;5050332;28;20582;-64
2023/08/05 06:53:33;;;;;;;10.65;3.67;;;;;;;;;;5049628;28;20123;-64
2023/08/05 06:56:03;;;;;;;12.90;3.53;;;;;;;;;;5047653;28;20044;-65
2023/08/05 06:58:30;;;;;;;7.43;3.55;;;;;;;;;;5048928;28;20105;-64
2023/08/05 07:00:57;;;;;;;6.03;3.03;;;;;;;;;;5049170;28;20105;-66
2023/08/05 07:03:24;;;;;;;9.05;3.58;;;;;;;;;;5050167;28;20036;-65
2023/08/05 07:05:55;;;;;;;7.22;3.10;;;;;;;;;;5065062;28;20033;-64
2023/08/05 07:08:25;;;;;;;9.30;3.60;;;;;;;;;;5052485;28;20044;-69
2023/08/05 07:10:58;;;;;;;6.43;3.40;;;;;;;;;;5052236;28;20570;-64
2023/08/05 07:13:25;;;;;;;6.43;3.30;;;;;;;;;;5053002;28;20045;-66
2023/08/05 07:15:58;;;;;;;8.77;3.58;;;;;;;;;;5052310;28;20098;-65
2023/08/05 07:18:25;;;;;;;7.20;3.92;;;;;;;;;;5049913;28;20061;-64
2023/08/05 07:20:51;;;;;;;10.50;4.00;;;;;;;;;;5053259;28;20035;-64
2023/08/05 07:23:18;;;;;;;8.32;3.08;;;;;;;;;;5067476;28;20033;-65
2023/08/05 07:25:45;;;;;;;6.85;3.65;;;;;;;;;;5052137;28;22062;-64
2023/08/05 07:28:11;;;;;;;6.90;3.50;;;;;;;;;;5050382;28;20056;-64
2023/08/05 07:30:38;;;;;;;7.53;3.42;;;;;;;;;;5053487;28;20029;-66
2023/08/05 07:33:07;;;;;;;10.15;3.95;;;;;;;;;;5053702;28;20716;-64
2023/08/05 07:35:33;;;;;;;6.70;3.22;;;;;;;;;;5050766;28;20135;-64
2023/08/05 07:38:09;;;;;;;6.40;2.92;;;;;;;;;;5052230;28;20049;-64
2023/08/05 07:40:38;;;;;;;8.40;3.38;;;;;;;;;;5051850;28;20033;-63
2023/08/05 07:43:06;;;;;;;7.75;3.13;;;;;;;;;;5050982;28;20040;-63
2023/08/05 07:45:35;;;;;;;6.25;3.53;;;;;;;;;;5049879;28;20037;-64
2023/08/05 07:48:06;;;;;;;6.55;3.60;;;;;;;;;;5052692;28;20041;-64
2023/08/05 07:50:33;;;;;;;7.25;3.60;;;;;;;;;;5050562;28;20131;-64
2023/08/05 07:52:59;;;;;;;10.07;3.95;;;;;;;;;;5053436;28;20024;-64
2023/08/05 07:55:30;;;;;;;7.13;3.50;;;;;;;;;;5054484;28;20044;-64
2023/08/05 07:57:56;;;;;;;7.82;3.85;;;;;;;;;;5051612;28;20072;-64
2023/08/05 08:00:23;;;;;;;7.88;3.85;;;;;;;;;;5050410;28;20041;-64
2023/08/05 08:02:50;;;;;;;7.30;3.58;;;;;;;;;;5052076;28;20072;-64
2023/08/05 08:05:17;;;;;;;7.78;3.90;;;;;;;;;;5057134;28;20045;-64
2023/08/05 08:07:46;;;;;;;9.30;3.95;;;;;;;;;;5051318;28;20048;-63
2023/08/05 08:10:16;;;;;;;7.63;4.13;;;;;;;;;;5051979;28;20047;-64
2023/08/05 08:12:43;;;;;;;9.65;4.18;;;;;;;;;;5052909;28;20050;-64
2023/08/05 08:15:10;;;;;;;8.27;4.32;;;;;;;;;;5058117;28;20505;-64
2023/08/05 08:17:36;;;;;;;9.70;4.65;;;;;;;;;;5050544;28;20055;-65
2023/08/05 08:20:03;;;;;;;8.70;4.80;;;;;;;;;;5049237;28;20041;-65
2023/08/05 08:22:50;;;;;;;10.82;4.97;;;;;;;;;;5048555;28;20056;-63
2023/08/05 08:25:17;;;;;;;11.35;5.60;;;;;;;;;;5048128;28;20068;-65
2023/08/05 08:27:43;;;;;;;9.85;5.18;;;;;;;;;;5040273;28;20080;-63
2023/08/05 08:30:12;;;;;;;10.60;5.05;;;;;;;;;;5047813;28;20608;-64
2023/08/05 08:32:38;;;;;;;8.75;5.25;;;;;;;;;;5048515;28;20036;-64
2023/08/05 08:35:05;;;;;;;9.18;5.05;;;;;;;;;;5051762;28;20119;-65
2023/08/05 08:37:32;;;;;;;10.18;5.57;;;;;;;;;;5050345;28;20048;-64
2023/08/05 08:39:59;;;;;;;8.95;5.43;;;;;;;;;;5050767;28;20617;-65
2023/08/05 08:42:26;;;;;;;9.32;5.80;;;;;;;;;;5049036;28;20044;-65
2023/08/05 08:44:53;;;;;;;10.07;5.32;;;;;;;;;;5035285;28;20052;-64
2023/08/05 08:47:20;;;;;;;9.07;5.40;;;;;;;;;;5047692;28;20039;-64
2023/08/05 08:49:47;;;;;;;8.88;5.90;;;;;;;;;;5040600;28;20033;-64
2023/08/05 08:52:18;;;;;;;10.23;5.63;;;;;;;;;;5048146;28;20040;-65
2023/08/05 08:54:45;;;;;;;10.23;5.88;;;;;;;;;;5034338;28;21040;-64
2023/08/05 08:57:13;;;;;;;12.02;6.28;;;;;;;;;;5045716;28;20079;-65
2023/08/05 08:59:40;;;;;;;9.63;6.03;;;;;;;;;;5044018;28;20035;-66
2023/08/05 09:02:15;;;;;;;11.18;6.60;;;;;;;;;;5050234;28;20136;-63
2023/08/05 09:04:42;;;;;;;9.07;5.70;;;;;;;;;;5050874;28;20075;-64
2023/08/05 09:07:11;;;;;;;12.40;5.95;;;;;;;;;;5054799;28;20052;-65
2023/08/05 09:09:37;;;;;;;9.73;5.63;;;;;;;;;;5049663;28;20044;-64
2023/08/05 09:12:04;;;;;;;8.93;5.80;;;;;;;;;;5050755;28;20400;-64
2023/08/05 09:14:31;;;;;;;14.60;6.28;;;;;;;;;;5053108;28;20508;-64
2023/08/05 09:16:59;;;;;;;10.48;5.70;;;;;;;;;;5048807;28;20049;-65
2023/08/05 09:19:29;;;;;;;11.23;5.72;;;;;;;;;;5056109;28;20401;-64
2023/08/05 09:21:56;;;;;;;11.57;6.20;;;;;;;;;;5051164;28;20594;-63
2023/08/05 09:24:23;;;;;;;12.25;5.75;;;;;;;;;;5054637;27;20538;-64
2023/08/05 09:26:56;;;;;;;9.93;5.95;;;;;;;;;;5061066;28;20037;-65
2023/08/05 09:29:22;;;;;;;;;;;;;;;;;;5051186;28;20457;-62
2023/08/05 09:31:56;;;;;;;13.15;5.63;;;;;;;;;;5050016;28;19948;-65
2023/08/05 09:34:31;;;;;;;11.85;6.00;;;;;;;;;;5048544;28;20044;-65
2023/08/05 09:36:58;;;;;;;12.52;6.15;;;;;;;;;;5049254;28;20052;-64
2023/08/05 09:39:24;;;;;;;11.98;6.30;;;;;;;;;;5050442;28;20484;-65
2023/08/05 09:41:51;;;;;;;10.35;6.13;;;;;;;;;;5049616;28;20079;-65
2023/08/05 09:44:18;;;;;;;11.30;6.45;;;;;;;;;;5050883;28;20059;-64
2023/08/05 09:46:46;;;;;;;11.10;6.47;;;;;;;;;;5048676;28;20037;-68
2023/08/05 09:49:17;;;;;;;11.75;6.55;;;;;;;;;;5049489;28;20044;-65
2023/08/05 09:51:46;;;;;;;12.27;6.72;;;;;;;;;;5048206;28;20051;-65
2023/08/05 09:54:32;;;;;;;14.52;6.53;;;;;;;;;;5065700;28;20124;-64
2023/08/05 09:57:03;;;;;;;12.00;6.93;;;;;;;;;;5066293;28;20520;-64
2023/08/05 09:59:29;;;;;;;15.23;6.25;;;;;;;;;;5067791;28;20035;-65
2023/08/05 10:01:59;;;;;;;11.88;6.65;;;;;;;;;;5066945;28;20044;-63
2023/08/05 10:04:26;;;;;;;10.10;6.43;;;;;;;;;;5066386;28;20674;-64
2023/08/05 10:06:53;;;;;;;12.45;6.20;;;;;;;;;;5067007;28;20128;-65
2023/08/05 10:09:20;;;;;;;10.90;6.40;;;;;;;;;;5066433;28;20047;-64
2023/08/05 10:11:47;;;;;;;10.35;6.57;;;;;;;;;;5065322;28;20036;-64
2023/08/05 10:14:15;;;;;;;10.05;6.75;;;;;;;;;;5064380;28;20035;-64
2023/08/05 10:16:41;;;;;;;15.38;6.35;;;;;;;;;;5063744;28;20160;-64
2023/08/05 10:19:08;;;;;;;9.70;6.10;;;;;;;;;;5065605;28;20071;-66
2023/08/05 10:21:44;;;;;;;12.55;6.63;;;;;;;;;;5049389;28;20432;-65
2023/08/05 10:24:11;;;;;;;10.60;6.80;;;;;;;;;;5071558;28;20168;-65
2023/08/05 10:26:42;;;;;;;11.82;6.38;;;;;;;;;;5064929;28;20032;-64
2023/08/05 10:29:28;;;;;;;12.48;5.90;;;;;;;;;;5051766;28;20131;-65
2023/08/05 10:32:15;;;;;;;13.70;6.63;;;;;;;;;;5058409;28;20551;-64
2023/08/05 10:34:41;;;;;;;10.63;5.88;;;;;;;;;;5050910;28;20048;-64
2023/08/05 10:37:08;;;;;;;12.13;6.40;;;;;;;;;;5049602;28;20045;-65
2023/08/05 10:39:41;;;;;;;12.55;6.72;;;;;;;;;;5054698;28;20067;-65
2023/08/05 10:42:17;;;;;;;9.68;6.28;;;;;;;;;;5056157;28;20517;-64
2023/08/05 10:44:44;;;;;;;14.88;7.00;;;;;;;;;;5057152;28;20544;-63
2023/08/05 10:47:11;;;;;;;11.30;6.72;;;;;;;;;;5054762;28;20627;-65
2023/08/05 10:49:37;;;;;;;10.75;6.55;;;;;;;;;;5054804;28;20054;-63
2023/08/05 10:52:04;;;;;;;12.32;6.53;;;;;;;;;;5053923;28;20079;-64
2023/08/05 10:54:35;;;;;;;10.48;6.22;;;;;;;;;;5052404;28;20029;-66
2023/08/05 10:57:12;;;;;;;11.07;6.30;;;;;;;;;;5052921;28;20059;-63
2023/08/05 10:59:59;;;;;;;10.30;6.68;;;;;;;;;;5053231;28;20044;-64
2023/08/05 11:02:25;;;;;;;10.80;6.47;;;;;;;;;;5053087;28;20037;-63
2023/08/05 11:04:52;;;;;;;13.98;6.50;;;;;;;;;;5054241;28;20856;-64
2023/08/05 11:07:19;;;;;;;11.15;6.32;;;;;;;;;;5053781;28;20144;-63
2023/08/05 11:09:46;;;;;;;12.18;6.28;;;;;;;;;;5052691;28;20045;-63
2023/08/05 11:12:13;;;;;;;11.90;7.03;;;;;;;;;;5054269;28;20097;-64
2023/08/05 11:14:40;;;;;;;14.45;6.35;;;;;;;;;;5057393;27;20447;-64
2023/08/05 11:17:08;;;;;;;12.73;6.28;;;;;;;;;;5050649;28;20512;-63
2023/08/05 11:19:53;;;;;;;10.07;5.80;;;;;;;;;;5053099;28;20051;-64
2023/08/05 11:22:27;;;;;;;15.88;6.85;;;;;;;;;;5060996;28;20049;-64
2023/08/05 11:24:57;;;;;;;14.23;6.30;;;;;;;;;;5052594;28;20037;-64
2023/08/05 11:27:32;;;;;;;10.60;5.60;;;;;;;;;;5067700;28;20044;-63
2023/08/05 11:29:59;;;;;;;12.38;6.28;;;;;;;;;;5061691;28;20049;-63
2023/08/05 11:32:25;;;;;;;9.20;5.68;;;;;;;;;;5053363;28;20041;-63
2023/08/05 11:35:01;;;;;;;8.45;5.90;;;;;;;;;;5053474;28;20159;-63
2023/08/05 11:37:34;;;;;;;11.30;6.03;;;;;;;;;;5051829;28;20614;-62
2023/08/05 11:40:02;;;;;;;9.70;5.72;;;;;;;;;;5050727;28;20090;-64
2023/08/05 11:42:31;;;;;;;11.25;6.25;;;;;;;;;;5051303;28;20036;-67
2023/08/05 11:44:58;;;;;;;10.98;5.93;;;;;;;;;;5052886;28;20041;-64
2023/08/05 11:47:24;;;;;;;9.60;5.55;;;;;;;;;;5052904;28;20101;-65
2023/08/05 11:49:52;;;;;;;12.43;5.65;;;;;;;;;;5053618;28;20071;-63
2023/08/05 11:52:19;;;;;;;12.95;6.32;;;;;;;;;;5059326;28;20036;-64
2023/08/05 11:55:07;;;;;;;14.30;6.03;;;;;;;;;;5062411;28;20048;-63
2023/08/05 11:57:33;;;;;;;11.00;6.38;;;;;;;;;;5057260;28;20040;-64
2023/08/05 12:00:04;;;;;;;12.73;6.00;;;;;;;;;;5062888;28;20044;-64
2023/08/05 12:02:34;;;;;;;12.25;6.22;;;;;;;;;;5062322;28;20075;-63
2023/08/05 12:05:01;;;;;;;12.02;6.22;;;;;;;;;;5062117;28;20413;-63
2023/08/05 12:07:28;;;;;;;11.48;6.20;;;;;;;;;;5061100;28;20064;-63
2023/08/05 12:10:06;;;;;;;10.13;6.10;;;;;;;;;;5061604;28;20425;-63
2023/08/05 12:12:32;;;;;;;10.93;5.95;;;;;;;;;;5060198;28;20036;-65
2023/08/05 12:15:09;;;;;;;12.95;6.72;;;;;;;;;;5062241;28;20028;-63
2023/08/05 12:17:36;;;;;;;14.35;6.78;;;;;;;;;;5060358;28;20102;-64
2023/08/05 12:20:05;;;;;;;12.00;6.43;;;;;;;;;;5059301;28;20040;-65
2023/08/05 12:22:31;;;;;;;11.50;6.43;;;;;;;;;;5057787;28;20060;-65
2023/08/05 12:24:58;;;;;;;10.07;5.53;;;;;;;;;;5059315;28;20048;-64
2023/08/05 12:27:25;;;;;;;12.27;6.38;;;;;;;;;;5056569;28;21779;-63
2023/08/05 12:29:51;;;;;;;10.60;6.30;;;;;;;;;;5058633;28;20222;-66
2023/08/05 12:32:18;;;;;;;10.55;5.97;;;;;;;;;;5056489;28;20039;-63
2023/08/05 12:34:44;;;;;;;11.82;5.97;;;;;;;;;;5050237;28;20040;-64
2023/08/05 12:37:11;;;;;;;16.90;6.57;;;;;;;;;;5049725;28;20132;-66
2023/08/05 12:39:38;;;;;;;10.02;5.95;;;;;;;;;;5049752;28;20037;-64
2023/08/05 12:42:05;;;;;;;9.55;5.25;;;;;;;;;;5057201;28;20046;-64
2023/08/05 12:44:32;;;;;;;9.50;5.28;;;;;;;;;;5047771;28;20098;-65
2023/08/05 12:46:58;;;;;;;15.30;6.30;;;;;;;;;;5050346;28;20123;-63
2023/08/05 12:49:25;;;;;;;10.27;5.80;;;;;;;;;;5051568;28;20041;-62
2023/08/05 12:51:52;;;;;;;12.63;5.68;;;;;;;;;;5051965;28;20041;-63
2023/08/05 12:54:18;;;;;;;13.15;6.30;;;;;;;;;;5053222;28;20036;-63
2023/08/05 12:56:45;;;;;;;19.35;6.78;;;;;;;;;;5047980;28;20070;-63
2023/08/05 12:59:12;;;;;;;11.35;5.70;;;;;;;;;;5051787;28;20098;-64
2023/08/05 13:01:38;;;;;;;12.20;5.93;;;;;;;;;;5050552;28;20028;-63
2023/08/05 13:04:05;;;;;;;10.32;5.15;;;;;;;;;;5049917;28;20033;-63
2023/08/05 13:06:31;;;;;;;12.27;5.53;;;;;;;;;;5047595;28;20044;-65
2023/08/05 13:08:58;;;;;;;9.18;5.30;;;;;;;;;;5066014;28;20033;-60
2023/08/05 13:11:25;;;;;;;10.57;5.28;;;;;;;;;;5050920;28;20042;-63
2023/08/05 13:13:51;;;;;;;9.65;5.50;;;;;;;;;;5053469;28;20086;-64
2023/08/05 13:16:18;;;;;;;10.00;4.95;;;;;;;;;;5050037;28;20101;-65
2023/08/05 13:18:45;;;;;;;12.52;4.78;;;;;;;;;;5049838;28;20067;-66
2023/08/05 13:21:12;;;;;;;9.93;5.60;;;;;;;;;;5050049;28;20041;-66
2023/08/05 13:23:39;;;;;;;8.85;5.00;;;;;;;;;;5050349;28;20047;-64
2023/08/05 13:26:05;;;;;;;8.85;5.05;;;;;;;;;;5049854;28;20041;-65
2023/08/05 13:28:32;;;;;;;10.50;5.13;;;;;;;;;;5060965;28;20056;-65
2023/08/05 13:31:02;;;;;;;10.95;5.05;;;;;;;;;;5050980;28;20603;-66
2023/08/05 13:33:29;;;;;;;9.50;4.95;;;;;;;;;;5051589;28;20049;-65
2023/08/05 13:35:55;;;;;;;8.40;4.78;;;;;;;;;;5050585;28;20055;-63
2023/08/05 13:38:22;;;;;;;10.13;4.95;;;;;;;;;;5052295;28;20044;-64
2023/08/05 13:40:52;;;;;;;10.68;4.57;;;;;;;;;;5054371;28;20421;-63
2023/08/05 13:43:18;;;;;;;10.13;4.82;;;;;;;;;;5053743;28;20044;-61
2023/08/05 13:45:52;;;;;;;10.30;4.88;;;;;;;;;;5052317;28;20345;-63
2023/08/05 13:48:38;;;;;;;9.77;4.95;;;;;;;;;;5052242;28;20444;-63
2023/08/05 13:51:08;;;;;;;8.75;4.45;;;;;;;;;;5047778;28;20033;-60
2023/08/05 13:53:35;;;;;;;6.95;4.05;;;;;;;;;;5047990;28;20060;-65
2023/08/05 13:56:03;;;;;;;11.88;5.22;;;;;;;;;;5031852;28;20144;-66
2023/08/05 13:58:29;;;;;;;12.57;5.28;;;;;;;;;;5035586;28;20563;-65
2023/08/05 14:00:57;;;;;;;9.00;4.53;;;;;;;;;;5049443;28;20033;-63
2023/08/05 14:03:24;;;;;;;8.20;4.82;;;;;;;;;;5049974;28;20052;-64
2023/08/05 14:05:55;;;;;;;8.10;4.40;;;;;;;;;;5044144;28;20672;-64
2023/08/05 14:08:22;;;;;;;8.88;4.28;;;;;;;;;;5048807;28;20041;-64
2023/08/05 14:10:52;;;;;;;8.13;4.72;;;;;;;;;;5042323;28;20071;-61
2023/08/05 14:13:18;;;;;;;11.57;4.72;;;;;;;;;;5046706;28;20119;-62
2023/08/05 14:15:47;;;;;;;7.97;4.40;;;;;;;;;;5042913;28;20036;-64
2023/08/05 14:18:14;;;;;;;6.82;3.90;;;;;;;;;;4993399;28;20054;-63
2023/08/05 14:20:40;;;;;;;9.88;5.10;;;;;;;;;;4996516;28;20088;-65
2023/08/05 14:23:07;;;;;;;7.65;4.50;;;;;;;;;;5007033;28;20064;-64
2023/08/05 14:25:34;;;;;;;9.07;4.38;;;;;;;;;;5003741;28;20104;-64
2023/08/05 14:28:00;;;;;;;9.18;4.55;;;;;;;;;;5007133;28;20132;-64
2023/08/05 14:30:28;;;;;;;8.02;4.53;;;;;;;;;;5010183;28;20038;-64
2023/08/05 14:32:55;;;;;;;8.18;4.40;;;;;;;;;;5009472;28;20058;-63
2023/08/05 14:35:21;;;;;;;10.00;4.90;;;;;;;;;;5006892;28;20128;-65
2023/08/05 14:37:49;;;;;;;11.02;5.00;;;;;;;;;;5015334;28;20054;-64
2023/08/05 14:40:16;;;;;;;8.30;4.80;;;;;;;;;;5007872;28;20068;-65
2023/08/05 14:42:42;;;;;;;10.48;4.70;;;;;;;;;;5010809;28;20403;-64
2023/08/05 14:45:10;;;;;;;9.27;4.75;;;;;;;;;;5011079;28;20049;-65